Wind From: 11-12-2017 12:03 Until: 12-12-2017 06:00 warning for: Wind Level: Orange info button

Power and phone distribution networks may be disrupted for relatively long periods., Roofs and chimneys can be damaged. , Tree branches may break. , Vehicles can be deported. , Traffic may be disrupted, particularly on secondary roads in forest areas. Limit your trips. , Limit your speed in highway driving, especially if you drive a vehicle or hitch sensitive to wind. , Do not go for walks in forests or along the coast., In town, be vigilant against possible falling objects., Do not work on roofs and do not touch any electrical line fallen on the ground., Store or secure sensitive objects to wind or likely to be damaged., Always install power generators outside buildings. 


Meteo18 Weather Cam more information Meteo18 Weather Cam


Thunder radar more information blitzortung!


Rain radar more information rain snow radar


Visit our other weather sites:

Template documentation
and downloads

And another site



Weather Underground History page Text

Daily Summary for May 13, 2017 Units:  English    Metric   Both
« Previous Day
Next Day »
Daily Weekly Monthly Yearly Custom
  High: Low: Average:
Temperature: 64.8 °F 47.1 °F 56.7 °F
Dew Point: 56.8 °F 46.4 °F 52.3 °F
Humidity: 98 % 66 % 86 %
Wind Speed: 10 mph 0 mph 2.5 mph
Wind Gust: 14 mph - -
Wind:- - SW
Pressure: 30.1 in 29.8 in -
Precipitation: 0.04 in    
Historical Graphs
 
 
Tabular Data for May 13, 2017
Time Temperature Dew Point Pressure Wind Wind Speed Wind Gust Humidity Rainfall Rate (Hourly)
00:02 53.2 °F 52.2 °F 29.8 in Calm     96 % 0 in
00:07 53.2 °F 52.3 °F 29.8 in Calm     97 % 0 in
00:12 53.1 °F 52 °F 29.8 in Calm     96 % 0 in
00:17 52.9 °F 51.8 °F 29.8 in Calm     96 % 0 in
00:22 52.7 °F 51.6 °F 29.8 in Calm     96 % 0 in
00:27 52.5 °F 51.4 °F 29.8 in Calm     96 % 0 in
00:32 52.2 °F 51.1 °F 29.8 in Calm     96 % 0 in
00:42 52.5 °F 51.6 °F 29.8 in Calm     97 % 0 in
00:47 52.5 °F 51.6 °F 29.8 in Calm     97 % 0 in
00:52 52.3 °F 51.4 °F 29.8 in Calm     97 % 0 in
00:57 52.5 °F 51.6 °F 29.8 in Calm     97 % 0 in
01:02 52.5 °F 51.6 °F 29.8 in Calm     97 % 0 in
01:12 51.8 °F 50.7 °F 29.8 in Calm     96 % 0.01 in
01:17 51.6 °F 50.5 °F 29.8 in Calm     96 % 0.01 in
01:22 51.4 °F 50.4 °F 29.8 in Calm     96 % 0.01 in
01:32 51.4 °F 50.5 °F 29.8 in Calm     97 % 0.01 in
01:42 51.4 °F 50.5 °F 29.8 in Calm     97 % 0.01 in
01:47 51.3 °F 50.4 °F 29.8 in Calm     97 % 0.01 in
01:52 51.4 °F 50.5 °F 29.8 in Calm     97 % 0.01 in
01:57 51.6 °F 50.7 °F 29.8 in Calm     97 % 0.01 in
02:02 51.6 °F 50.7 °F 29.8 in Calm     97 % 0.01 in
02:07 51.6 °F 50.7 °F 29.8 in Calm     97 % 0 in
02:12 51.4 °F 50.5 °F 29.8 in Calm     97 % 0 in
02:17 51.1 °F 50 °F 29.8 in Calm     96 % 0 in
02:22 50.9 °F 50 °F 29.8 in Calm     97 % 0 in
02:32 50.7 °F 49.8 °F 29.8 in Calm     97 % 0 in
02:37 50.5 °F 49.6 °F 29.8 in Calm     97 % 0 in
02:42 50.5 °F 49.6 °F 29.8 in Calm     97 % 0 in
02:47 50.4 °F 49.5 °F 29.8 in Calm     97 % 0 in
02:52 50.2 °F 49.3 °F 29.8 in Calm     97 % 0 in
02:57 50.4 °F 49.5 °F 29.8 in Calm     97 % 0 in
03:02 50.4 °F 49.5 °F 29.8 in Calm     97 % 0 in
03:07 50.4 °F 49.5 °F 29.8 in Calm     97 % 0 in
03:12 50.2 °F 49.3 °F 29.8 in Calm     97 % 0 in
03:17 49.8 °F 48.9 °F 29.8 in Calm     97 % 0 in
03:22 49.6 °F 48.7 °F 29.8 in Calm     97 % 0 in
03:32 49.5 °F 48.6 °F 29.8 in Calm     97 % 0 in
03:42 49.3 °F 48.4 °F 29.8 in Calm     97 % 0 in
03:47 49.3 °F 48.4 °F 29.8 in Calm     97 % 0 in
03:52 49.3 °F 48.4 °F 29.8 in Calm     97 % 0 in
03:57 49.5 °F 48.6 °F 29.8 in North 1 mph   97 % 0 in
04:02 49.5 °F 48.6 °F 29.8 in Calm   1 mph 97 % 0 in
04:12 49.3 °F 48.4 °F 29.8 in Calm   1 mph 97 % 0 in
04:17 49.3 °F 48.4 °F 29.8 in Calm   1 mph 97 % 0 in
04:22 48.9 °F 48 °F 29.8 in Calm   1 mph 97 % 0 in
04:27 48.9 °F 48 °F 29.8 in Calm     97 % 0 in
04:32 48.9 °F 48 °F 29.8 in Calm     97 % 0 in
04:37 49.1 °F 48.2 °F 29.8 in Calm     97 % 0 in
04:42 48.9 °F 48 °F 29.8 in Calm     97 % 0 in
04:47 48.9 °F 48 °F 29.8 in Calm     97 % 0 in
04:52 48.6 °F 47.7 °F 29.8 in Calm     97 % 0 in
04:57 48.4 °F 47.5 °F 29.8 in Calm     97 % 0 in
05:02 48.4 °F 47.5 °F 29.8 in Calm     97 % 0 in
05:12 48.2 °F 47.3 °F 29.8 in Calm     97 % 0 in
05:17 48 °F 47.1 °F 29.8 in Calm     97 % 0 in
05:22 47.7 °F 46.9 °F 29.8 in Calm     97 % 0 in
05:27 47.7 °F 46.9 °F 29.8 in Calm     97 % 0 in
05:32 47.8 °F 46.9 °F 29.8 in Calm     97 % 0 in
05:37 47.8 °F 46.9 °F 29.8 in Calm     97 % 0 in
05:42 47.8 °F 46.9 °F 29.8 in Calm     97 % 0 in
05:47 47.5 °F 46.8 °F 29.8 in Calm     97 % 0.01 in
05:52 47.5 °F 46.8 °F 29.8 in Calm     97 % 0.01 in
05:57 47.7 °F 46.9 °F 29.8 in Calm     97 % 0.01 in
06:02 47.1 °F 46.4 °F 29.8 in Calm     97 % 0.01 in
06:07 47.1 °F 46.4 °F 29.8 in Calm     97 % 0.01 in
06:12 47.7 °F 46.9 °F 29.8 in Calm     97 % 0.01 in
06:17 47.8 °F 47.3 °F 29.8 in Calm     98 % 0.02 in
06:22 48 °F 47.5 °F 29.8 in Calm     98 % 0.02 in
06:27 48.4 °F 47.8 °F 29.8 in Calm     98 % 0.02 in
06:32 48.4 °F 47.8 °F 29.9 in Calm     98 % 0.02 in
06:42 48.4 °F 47.5 °F 29.9 in Calm     97 % 0.02 in
06:47 48.6 °F 48 °F 29.9 in Calm     98 % 0.02 in
06:52 48.2 °F 47.3 °F 29.9 in Calm     97 % 0.02 in
06:57 47.8 °F 46.9 °F 29.9 in Calm     97 % 0.02 in
07:02 47.8 °F 46.9 °F 29.9 in Calm     97 % 0.02 in
07:07 47.7 °F 46.9 °F 29.9 in Calm     97 % 0.02 in
07:12 47.7 °F 46.9 °F 29.9 in Calm     97 % 0.02 in
07:17 47.7 °F 46.9 °F 29.9 in Calm     97 % 0 in
07:22 47.7 °F 46.9 °F 29.9 in Calm     97 % 0 in
07:32 47.8 °F 46.9 °F 29.9 in Calm     97 % 0 in
07:37 48.4 °F 47.8 °F 29.9 in Calm     98 % 0 in
07:42 48.7 °F 48.2 °F 29.9 in Calm     98 % 0 in
07:47 49.3 °F 48.7 °F 29.9 in Calm     98 % 0 in
07:57 50.2 °F 49.6 °F 29.9 in SW 2 mph 3 mph 98 % 0 in
08:02 50.4 °F 49.8 °F 29.9 in Calm   3 mph 98 % 0 in
08:07 51.1 °F 50.5 °F 29.9 in Calm   3 mph 98 % 0 in
08:12 52 °F 51.4 °F 29.9 in SW 2 mph 3 mph 98 % 0 in
08:17 52.3 °F 51.8 °F 29.9 in SW 2 mph 3 mph 98 % 0 in
08:27 53.4 °F 52.9 °F 29.9 in SW 3 mph 5 mph 98 % 0 in
08:32 54 °F 53.4 °F 29.9 in West 3 mph 5 mph 98 % 0 in
08:42 54.7 °F 53.8 °F 29.9 in SW 4 mph 6 mph 97 % 0 in
08:47 54.9 °F 54 °F 29.9 in West 4 mph 6 mph 97 % 0 in
08:57 55 °F 54.1 °F 29.9 in WNW 4 mph 6 mph 97 % 0 in
09:02 55.2 °F 54.3 °F 29.9 in SW 3 mph 6 mph 97 % 0 in
09:12 55.6 °F 54.5 °F 29.9 in SW 2 mph 8 mph 96 % 0.01 in
09:17 55.8 °F 54.7 °F 29.9 in WSW 2 mph 6 mph 96 % 0.01 in
09:27 56.5 °F 55 °F 29.9 in SW 3 mph 5 mph 95 % 0.01 in
09:32 57 °F 55.2 °F 29.9 in WSW 3 mph 5 mph 94 % 0.01 in
09:37 57.6 °F 55.6 °F 29.9 in WNW 4 mph 5 mph 93 % 0.01 in
09:42 57.9 °F 55.9 °F 29.9 in WSW 2 mph 5 mph 93 % 0.01 in
09:47 58.8 °F 56.1 °F 29.9 in SW 3 mph 6 mph 91 % 0.01 in
09:52 58.8 °F 55.6 °F 29.9 in SW 4 mph 6 mph 89 % 0.01 in
09:57 58.8 °F 55.6 °F 29.9 in WSW 6 mph 8 mph 89 % 0.01 in
10:02 58.6 °F 54.9 °F 29.9 in WSW 8 mph 9 mph 87 % 0.01 in
10:12 58.5 °F 54.3 °F 29.9 in WSW 8 mph 13 mph 86 % 0 in
10:22 58.3 °F 53.8 °F 29.9 in WSW 8 mph 13 mph 85 % 0 in
10:27 58.3 °F 53.8 °F 29.9 in WSW 5 mph 13 mph 85 % 0 in
10:32 58.5 °F 53.6 °F 29.9 in West 5 mph 13 mph 84 % 0 in
10:37 58.8 °F 54.7 °F 29.9 in West 5 mph 13 mph 86 % 0 in
10:42 59.2 °F 54.3 °F 29.9 in WNW 5 mph 11 mph 84 % 0 in
10:47 58.8 °F 53.6 °F 29.9 in WSW 5 mph 11 mph 83 % 0 in
10:57 59.4 °F 53.8 °F 30 in West 7 mph 10 mph 82 % 0 in
11:02 59.4 °F 53.6 °F 30 in WSW 4 mph 10 mph 81 % 0 in
11:12 59.4 °F 53.6 °F 30 in West 3 mph 10 mph 81 % 0 in
11:17 59.5 °F 54.3 °F 30 in WSW 6 mph 12 mph 83 % 0 in
11:22 59.7 °F 54.5 °F 30 in SSW 1 mph 12 mph 83 % 0 in
11:32 59.7 °F 54.5 °F 30 in WSW 7 mph 11 mph 83 % 0 in
11:42 60.1 °F 54 °F 30 in West 3 mph 11 mph 80 % 0 in
11:47 59.9 °F 54.1 °F 30 in West 2 mph 10 mph 81 % 0 in
11:57 60.3 °F 54.7 °F 30 in SW 5 mph 9 mph 82 % 0 in
12:02 60.3 °F 54.7 °F 30 in WSW 5 mph 9 mph 82 % 0 in
12:07 60.4 °F 54.3 °F 30 in SSW 7 mph 9 mph 80 % 0 in
12:12 60.6 °F 55 °F 30 in West 4 mph 10 mph 82 % 0 in
12:17 60.6 °F 54.5 °F 30 in SW 7 mph 10 mph 80 % 0 in
12:22 60.4 °F 54 °F 30 in WSW 5 mph 10 mph 79 % 0 in
12:32 60.8 °F 54.3 °F 30 in South 5 mph 12 mph 79 % 0 in
12:37 61.2 °F 54.7 °F 30 in SW 10 mph 12 mph 79 % 0 in
12:42 61.2 °F 54.3 °F 30 in SSW 7 mph 14 mph 78 % 0 in
12:52 61 °F 55.4 °F 30 in West 5 mph 12 mph 82 % 0 in
12:57 61.2 °F 55.2 °F 30 in SW 2 mph 12 mph 81 % 0 in
13:02 61.2 °F 54.7 °F 30 in SW 6 mph 10 mph 79 % 0 in
13:07 61.5 °F 55.2 °F 30 in SSE 6 mph 11 mph 80 % 0 in
13:12 61.3 °F 54.9 °F 30 in SW 8 mph 11 mph 79 % 0 in
13:17 61.7 °F 55.8 °F 30 in South 9 mph 11 mph 81 % 0 in
13:22 61.7 °F 54.5 °F 30 in WNW 2 mph 11 mph 77 % 0 in
13:27 61.9 °F 54.7 °F 30 in SW 9 mph 11 mph 77 % 0 in
13:32 62.1 °F 54.7 °F 30 in SSW 3 mph 12 mph 77 % 0 in
13:37 62.8 °F 55.8 °F 30 in SW 9 mph 13 mph 78 % 0 in
13:42 63 °F 55.9 °F 30 in SSW 5 mph 13 mph 78 % 0 in
13:47 63.5 °F 55.4 °F 30 in WSW 8 mph 11 mph 75 % 0 in
13:52 63.7 °F 54.9 °F 30 in South 7 mph 13 mph 73 % 0 in
13:57 63.3 °F 54.5 °F 30 in South 5 mph 13 mph 73 % 0 in
14:02 63.7 °F 55.9 °F 30 in WSW 6 mph 14 mph 76 % 0 in
14:12 64.6 °F 56.1 °F 30 in SW 7 mph 13 mph 74 % 0 in
14:17 64.2 °F 55.4 °F 30 in SSE 7 mph 11 mph 73 % 0 in
14:22 64 °F 55.6 °F 30 in WSW 10 mph 12 mph 74 % 0 in
14:32 64 °F 55.6 °F 30 in WSW 4 mph 12 mph 74 % 0 in
14:37 64.2 °F 55 °F 30 in West 4 mph 12 mph 72 % 0 in
14:42 64 °F 54.9 °F 30 in WSW 5 mph 12 mph 72 % 0 in
14:47 63.9 °F 53.1 °F 30 in West 4 mph 9 mph 68 % 0 in
14:52 64.2 °F 55 °F 30 in WSW 3 mph 10 mph 72 % 0 in
14:57 64.2 °F 53.8 °F 30 in SW 8 mph 10 mph 69 % 0 in
15:02 64.8 °F 54.7 °F 30 in SSW 3 mph 10 mph 70 % 0 in
15:12 64.6 °F 53.4 °F 30 in SW 5 mph 12 mph 67 % 0 in
15:17 64.4 °F 54.9 °F 30 in SSW 5 mph 12 mph 71 % 0 in
15:22 64.2 °F 54.3 °F 30 in WSW 7 mph 12 mph 70 % 0 in
15:32 64 °F 54.1 °F 30 in SW 5 mph 12 mph 70 % 0 in
15:37 63.9 °F 54 °F 30 in SW 6 mph 12 mph 70 % 0 in
15:42 63.9 °F 54.3 °F 30 in SSW 6 mph 10 mph 71 % 0 in
15:52 63.9 °F 55 °F 30 in SSW 5 mph 8 mph 73 % 0 in
15:57 63.9 °F 54.3 °F 30 in SW 4 mph 8 mph 71 % 0 in
16:02 63.9 °F 55 °F 30 in WSW 5 mph 9 mph 73 % 0 in
16:07 63.9 °F 54.7 °F 30 in SSW 5 mph 9 mph 72 % 0 in
16:12 64 °F 55.2 °F 30 in SSW 8 mph 9 mph 73 % 0 in
16:17 63.9 °F 54.3 °F 30 in SSW 10 mph 13 mph 71 % 0 in
16:22 63.7 °F 54.9 °F 30 in SW 4 mph 13 mph 73 % 0 in
16:27 63.9 °F 54.7 °F 30 in SSW 5 mph 13 mph 72 % 0 in
16:32 64 °F 54.9 °F 30 in SW 4 mph 11 mph 72 % 0 in
16:37 64 °F 55.2 °F 30 in SSW 4 mph 10 mph 73 % 0 in
16:42 64.2 °F 55.8 °F 30 in SW 5 mph 10 mph 74 % 0 in
16:52 63.9 °F 54.7 °F 30 in SW 5 mph 11 mph 72 % 0 in
16:57 63.9 °F 54.3 °F 30 in SW 3 mph 11 mph 71 % 0 in
17:02 63.7 °F 54.9 °F 30 in South 6 mph 11 mph 73 % 0 in
17:07 63.7 °F 54.9 °F 30 in SW 4 mph 9 mph 73 % 0 in
17:12 63.7 °F 54.9 °F 30 in SW 5 mph 9 mph 73 % 0 in
17:22 63.7 °F 55.6 °F 30 in SSW 5 mph 9 mph 75 % 0 in
17:32 63.5 °F 55 °F 30 in SSW 3 mph 8 mph 74 % 0 in
17:37 63.3 °F 55.6 °F 30 in SW 4 mph 8 mph 76 % 0 in
17:42 63.5 °F 56.1 °F 30 in SW 3 mph 7 mph 77 % 0 in
17:47 63.7 °F 55.2 °F 30 in WSW 5 mph 8 mph 74 % 0 in
17:52 63.9 °F 55.4 °F 30 in WSW 8 mph 10 mph 74 % 0 in
17:57 64 °F 55.2 °F 30 in South 5 mph 10 mph 73 % 0 in
18:02 64 °F 55.6 °F 30 in SSW 5 mph 10 mph 74 % 0 in
18:12 63.9 °F 55.8 °F 30 in WSW 5 mph 9 mph 75 % 0 in
18:17 63.7 °F 55.2 °F 30 in WSW 5 mph 9 mph 74 % 0 in
18:22 63.7 °F 55.2 °F 30 in SW 3 mph 9 mph 74 % 0 in
18:32 63.3 °F 54.9 °F 30 in West 2 mph 8 mph 74 % 0 in
18:42 63.3 °F 55.2 °F 30 in WSW 4 mph 7 mph 75 % 0 in
18:52 63.7 °F 55.9 °F 30 in SSW 4 mph 7 mph 76 % 0 in
18:57 63.7 °F 55.9 °F 30 in SW 3 mph 7 mph 76 % 0 in
19:02 63.7 °F 55.9 °F 30 in SSW 6 mph 7 mph 76 % 0 in
19:07 63.5 °F 55.4 °F 30 in SSW 5 mph 7 mph 75 % 0 in
19:12 63.5 °F 55.8 °F 30 in SSW 5 mph 7 mph 76 % 0 in
19:17 63.3 °F 55.2 °F 30 in SW 4 mph 7 mph 75 % 0 in
19:22 63.3 °F 55.9 °F 30 in SW 5 mph 7 mph 77 % 0 in
19:27 63.3 °F 55.6 °F 30 in SW 3 mph 7 mph 76 % 0 in
19:32 63.1 °F 56.1 °F 30 in SW 5 mph 7 mph 78 % 0 in
19:37 63.1 °F 55.8 °F 30 in SW 3 mph 6 mph 77 % 0 in
19:42 63 °F 55.9 °F 30 in SW 1 mph 6 mph 78 % 0 in
19:52 63.3 °F 56.7 °F 30 in SSW 3 mph 6 mph 79 % 0 in
19:57 63.9 °F 56.8 °F 30 in SSW 2 mph 5 mph 78 % 0 in
20:02 64 °F 56.7 °F 30 in South 4 mph 5 mph 77 % 0 in
20:07 64.4 °F 56.7 °F 30 in SW 5 mph 5 mph 76 % 0 in
20:12 64.6 °F 56.1 °F 30 in SW 4 mph 7 mph 74 % 0 in
20:17 64.4 °F 55.2 °F 30 in SSW 3 mph 8 mph 72 % 0 in
20:22 64.2 °F 53.8 °F 30 in SW 4 mph 8 mph 69 % 0 in
20:32 63.7 °F 52.2 °F 30 in SW 4 mph 7 mph 66 % 0 in
20:42 63.3 °F 53.1 °F 30 in Calm   5 mph 69 % 0 in
20:47 63.1 °F 53.6 °F 30 in SSW 2 mph 5 mph 71 % 0 in
20:52 62.8 °F 54.3 °F 30 in Calm   2 mph 74 % 0 in
20:57 62.1 °F 54 °F 30 in SW 1 mph 2 mph 75 % 0 in
21:02 61.3 °F 53.1 °F 30 in SW 2 mph 2 mph 74 % 0 in
21:12 60.4 °F 52.5 °F 30 in Calm   3 mph 75 % 0 in
21:17 59.9 °F 52 °F 30 in SW 1 mph 3 mph 75 % 0 in
21:22 59.7 °F 51.8 °F 30.1 in Calm   3 mph 75 % 0 in
21:32 59.2 °F 51.6 °F 30.1 in Calm   2 mph 76 % 0 in
21:37 58.5 °F 51.6 °F 30.1 in Calm   1 mph 78 % 0 in
21:42 57.9 °F 51.4 °F 30.1 in Calm     79 % 0 in
21:47 57.6 °F 51.1 °F 30.1 in Calm     79 % 0 in
21:52 57.6 °F 51.1 °F 30.1 in Calm     79 % 0 in
21:57 56.8 °F 50.7 °F 30.1 in Calm     80 % 0 in
22:02 56.5 °F 50.7 °F 30.1 in Calm     81 % 0 in
22:07 55.9 °F 50.5 °F 30.1 in Calm     82 % 0 in
22:17 55.6 °F 51.1 °F 30.1 in Calm     85 % 0 in
22:22 55.2 °F 50.7 °F 30.1 in Calm     85 % 0 in
22:32 54.3 °F 50.2 °F 30.1 in Calm     86 % 0 in
22:37 54.1 °F 50.4 °F 30.1 in Calm     87 % 0 in
22:42 54 °F 50.5 °F 30.1 in Calm     88 % 0 in
22:47 54.1 °F 50.9 °F 30.1 in Calm     89 % 0 in
22:52 54.3 °F 51.1 °F 30.1 in Calm     89 % 0 in
23:02 53.8 °F 50.5 °F 30.1 in Calm     89 % 0 in
23:07 53.8 °F 50.5 °F 30.1 in Calm     89 % 0 in
23:12 53.4 °F 50.2 °F 30.1 in Calm   2 mph 89 % 0 in
23:17 53.6 °F 50.7 °F 30.1 in Calm   2 mph 90 % 0 in
23:22 54.1 °F 51.6 °F 30.1 in Calm   3 mph 91 % 0 in
23:32 54.9 °F 51.6 °F 30.1 in SW 2 mph 2 mph 89 % 0 in
23:37 54.9 °F 51.6 °F 30.1 in SSW 1 mph 3 mph 89 % 0 in
23:42 55 °F 51.8 °F 30.1 in SW 1 mph 3 mph 89 % 0 in
23:47 55 °F 51.8 °F 30.1 in SW 1 mph 2 mph 89 % 0 in
23:52 54.9 °F 51.4 °F 30.1 in Calm   2 mph 88 % 0 in
Meteo18
Compliments of Weather Underground - 4 mb

Script developed by  Jim McMurry - jmcmurry@mwt.net Adapted for the template by  Wim van der Kuil - Leuven-Template.eu

You find our weather info also at:

European Weather Network

Weather Underground

Equipment we use:

Weather-station
Davis Vue

Weather-program
Meteohub

Weather-server
Raspberry PI 2 B+

Provider
1 and 1

Davis Vue

Meteohub

Raspberry PI 2 B+

1 and 1